Aviation Digital Data Service (ADDS)

Output produced by METARs form (1401 UTC 10 July 2020)
found at http://www.aviationweather.gov/metar/data/
 
KAHN 101351Z 33005KT 10SM CLR 29/22 A2997 RMK AO2 SLP138 T02940222
KAHN 101127Z 1012/1112 30003KT P6SM SCT060 
     FM101700 27004KT P6SM FEW050 
     FM110000 27005KT P6SM SCT050 
     FM110200 28004KT P6SM FEW250